Time;durP1;ratioP1;P1;durP2;ratioP2;P2;SDS_P1;SDS_P2;PMS_P1;PMS_P2;Temp;Humidity;BMP_temperature;BMP_pressure;BME280_temperature;BME280_humidity;BME280_pressure;Samples;Min_cycle;Max_cycle;Signal;HPM_P1;HPM_P2
2022/08/31 00:04:05;;;;;;;;;;;21.50;42.20;;;;;;464149;257;1440;-49
2022/08/31 00:06:06;;;;;;;;;;;21.50;42.20;;;;;;464414;255;1198;-50
2022/08/31 00:08:07;;;;;;;;;;;21.50;42.20;;;;;;464353;255;1334;-50
2022/08/31 00:10:13;;;;;;;;;;;21.60;42.20;;;;;;464478;255;1234;-50
2022/08/31 00:12:10;;;;;;;;;;;21.60;42.20;;;;;;464204;255;2193;-50
2022/08/31 00:14:18;;;;;;;;;;;21.60;42.20;;;;;;464230;256;1233;-50
2022/08/31 00:16:20;;;;;;;;;;;21.50;42.20;;;;;;464338;255;2214;-49
2022/08/31 00:18:21;;;;;;;;;;;21.50;42.10;;;;;;464212;256;1243;-50
2022/08/31 00:20:22;;;;;;;;;;;21.50;42.10;;;;;;464296;255;1237;-50
2022/08/31 00:22:24;;;;;;;;;;;21.50;42.20;;;;;;464496;255;1249;-50
2022/08/31 00:24:25;;;;;;;;;;;21.50;42.20;;;;;;464579;255;1142;-50
2022/08/31 00:26:26;;;;;;;;;;;21.50;42.10;;;;;;464645;255;1212;-49
2022/08/31 00:28:28;;;;;;;;;;;21.50;42.10;;;;;;464682;255;1086;-49
2022/08/31 00:30:29;;;;;;;;;;;21.50;42.10;;;;;;464595;255;1091;-50
2022/08/31 00:32:30;;;;;;;;;;;21.50;42.10;;;;;;464671;255;1274;-50
2022/08/31 00:34:32;;;;;;;;;;;21.50;42.10;;;;;;464595;255;1116;-50
2022/08/31 00:36:33;;;;;;;;;;;21.50;42.10;;;;;;464584;255;2175;-50
2022/08/31 00:38:34;;;;;;;;;;;21.60;42.20;;;;;;464267;256;1137;-50
2022/08/31 00:40:35;;;;;;;;;;;21.50;42.10;;;;;;464655;255;1315;-49
2022/08/31 00:42:37;;;;;;;;;;;21.50;42.10;;;;;;464235;256;1216;-50
2022/08/31 00:44:38;;;;;;;;;;;21.50;42.10;;;;;;464239;256;1224;-50
2022/08/31 00:46:40;;;;;;;;;;;21.50;42.10;;;;;;464267;255;1250;-50
2022/08/31 00:48:41;;;;;;;;;;;21.50;42.00;;;;;;464407;255;1219;-50
2022/08/31 00:50:42;;;;;;;;;;;21.60;42.10;;;;;;464195;256;1243;-49
2022/08/31 00:52:44;;;;;;;;;;;21.50;42.10;;;;;;464615;255;1302;-50
2022/08/31 00:54:45;;;;;;;;;;;21.50;42.00;;;;;;464201;256;2135;-50
2022/08/31 00:56:46;;;;;;;;;;;21.50;42.10;;;;;;464119;256;2218;-50
2022/08/31 00:58:47;;;;;;;;;;;21.50;42.20;;;;;;464615;255;1300;-49
2022/08/31 01:00:49;;;;;;;;;;;21.50;42.30;;;;;;464565;255;1216;-49
2022/08/31 01:02:50;;;;;;;;;;;21.50;42.30;;;;;;464216;255;2174;-50
2022/08/31 01:04:51;;;;;;;;;;;21.50;42.30;;;;;;464200;255;1245;-50
2022/08/31 01:06:53;;;;;;;;;;;21.50;42.30;;;;;;464577;255;1229;-50
2022/08/31 01:08:54;;;;;;;;;;;21.50;42.30;;;;;;464499;255;1304;-50
2022/08/31 01:10:55;;;;;;;;;;;21.50;42.20;;;;;;464241;256;1244;-50
2022/08/31 01:12:57;;;;;;;;;;;21.50;42.20;;;;;;464639;255;1261;-50
2022/08/31 01:14:58;;;;;;;;;;;21.50;42.20;;;;;;464240;256;1277;-50
2022/08/31 01:16:59;;;;;;;;;;;21.50;42.20;;;;;;464184;256;2206;-49
2022/08/31 01:19:01;;;;;;;;;;;21.50;42.20;;;;;;464337;255;1520;-50
2022/08/31 01:21:02;;;;;;;;;;;21.50;42.20;;;;;;464503;255;1331;-50
2022/08/31 01:23:03;;;;;;;;;;;21.50;42.20;;;;;;464597;255;1304;-50
2022/08/31 01:25:05;;;;;;;;;;;21.60;42.20;;;;;;464294;255;1197;-50
2022/08/31 01:27:06;;;;;;;;;;;21.50;42.10;;;;;;464220;256;1244;-50
2022/08/31 01:29:07;;;;;;;;;;;21.50;42.10;;;;;;464249;256;1309;-49
2022/08/31 01:31:09;;;;;;;;;;;21.50;42.20;;;;;;464241;255;1207;-50
2022/08/31 01:33:11;;;;;;;;;;;21.50;42.20;;;;;;464562;255;1714;-50
2022/08/31 01:35:12;;;;;;;;;;;21.50;42.20;;;;;;464554;255;2421;-50
2022/08/31 01:37:13;;;;;;;;;;;21.50;42.10;;;;;;464286;255;2218;-50
2022/08/31 01:39:14;;;;;;;;;;;21.50;42.10;;;;;;464507;255;1297;-50
2022/08/31 01:41:16;;;;;;;;;;;21.50;42.00;;;;;;464311;255;1463;-50
2022/08/31 01:43:17;;;;;;;;;;;21.50;42.10;;;;;;464222;255;1342;-50
2022/08/31 01:45:18;;;;;;;;;;;21.50;42.20;;;;;;464221;256;1143;-50
2022/08/31 01:47:20;;;;;;;;;;;21.50;42.10;;;;;;464347;255;1356;-50
2022/08/31 01:49:21;;;;;;;;;;;21.50;42.10;;;;;;464429;255;1213;-50
2022/08/31 01:51:22;;;;;;;;;;;21.50;42.10;;;;;;464666;255;1283;-50
2022/08/31 01:53:24;;;;;;;;;;;21.50;42.10;;;;;;464247;256;1238;-50
2022/08/31 01:55:25;;;;;;;;;;;21.50;42.10;;;;;;464251;255;1328;-50
2022/08/31 01:57:26;;;;;;;;;;;21.50;42.10;;;;;;464612;255;2179;-49
2022/08/31 01:59:28;;;;;;;;;;;21.50;42.00;;;;;;464407;255;1432;-50
2022/08/31 02:01:29;;;;;;;;;;;21.50;42.10;;;;;;464222;256;1244;-50
2022/08/31 02:03:30;;;;;;;;;;;21.50;42.00;;;;;;464622;255;1209;-50
2022/08/31 02:05:32;;;;;;;;;;;21.60;42.00;;;;;;464576;255;1315;-50
2022/08/31 02:07:33;;;;;;;;;;;21.50;42.00;;;;;;464172;256;1209;-50
2022/08/31 02:09:34;;;;;;;;;;;21.50;42.00;;;;;;464654;255;1089;-50
2022/08/31 02:11:36;;;;;;;;;;;21.50;42.00;;;;;;464510;255;1189;-50
2022/08/31 02:13:37;;;;;;;;;;;21.50;42.00;;;;;;464662;255;1091;-50
2022/08/31 02:15:38;;;;;;;;;;;21.60;42.00;;;;;;464654;255;1128;-50
2022/08/31 02:17:40;;;;;;;;;;;21.50;42.00;;;;;;464376;255;2169;-50
2022/08/31 02:19:41;;;;;;;;;;;21.50;42.00;;;;;;464423;255;1088;-49
2022/08/31 02:21:42;;;;;;;;;;;21.50;42.00;;;;;;464331;255;1190;-49
2022/08/31 02:23:44;;;;;;;;;;;21.50;42.00;;;;;;464225;256;1249;-50
2022/08/31 02:25:45;;;;;;;;;;;21.50;41.90;;;;;;464216;256;1218;-50
2022/08/31 02:27:47;;;;;;;;;;;21.50;42.00;;;;;;464566;255;1199;-50
2022/08/31 02:29:48;;;;;;;;;;;21.50;41.90;;;;;;464413;255;1299;-50
2022/08/31 02:31:50;;;;;;;;;;;21.50;42.00;;;;;;464140;256;1295;-50
2022/08/31 02:33:51;;;;;;;;;;;21.50;42.00;;;;;;464361;255;2393;-50
2022/08/31 02:35:52;;;;;;;;;;;21.50;41.90;;;;;;464362;255;1266;-50
2022/08/31 02:37:53;;;;;;;;;;;21.50;41.90;;;;;;464662;255;2218;-49
2022/08/31 02:39:55;;;;;;;;;;;21.60;42.00;;;;;;464260;255;1269;-50
2022/08/31 02:41:56;;;;;;;;;;;21.50;42.10;;;;;;464378;255;1288;-50
2022/08/31 02:43:57;;;;;;;;;;;21.50;42.20;;;;;;464173;255;1356;-50
2022/08/31 02:45:59;;;;;;;;;;;21.60;42.20;;;;;;464654;255;1362;-50
2022/08/31 02:48:00;;;;;;;;;;;21.50;42.10;;;;;;464366;255;1305;-49
2022/08/31 02:50:02;;;;;;;;;;;21.50;42.20;;;;;;464485;255;1172;-50
2022/08/31 02:52:03;;;;;;;;;;;21.50;42.10;;;;;;464490;255;1278;-50
2022/08/31 02:54:04;;;;;;;;;;;21.50;42.10;;;;;;464558;255;1401;-49
2022/08/31 02:56:07;;;;;;;;;;;21.50;42.10;;;;;;464304;255;1566;-50
2022/08/31 02:58:08;;;;;;;;;;;21.50;42.10;;;;;;464573;255;2213;-50
2022/08/31 03:00:10;;;;;;;;;;;21.50;42.10;;;;;;464658;255;1215;-50
2022/08/31 03:02:11;;;;;;;;;;;21.50;42.10;;;;;;464420;255;1337;-50
2022/08/31 03:04:12;;;;;;;;;;;21.50;42.10;;;;;;464510;255;1330;-50
2022/08/31 03:06:13;;;;;;;;;;;21.50;42.10;;;;;;464484;255;1227;-49
2022/08/31 03:08:15;;;;;;;;;;;21.50;42.10;;;;;;464262;256;1259;-50
2022/08/31 03:10:16;;;;;;;;;;;21.50;42.00;;;;;;464466;255;1149;-50
2022/08/31 03:12:17;;;;;;;;;;;21.50;42.00;;;;;;464653;255;1108;-50
2022/08/31 03:14:25;;;;;;;;;;;21.50;42.10;;;;;;464243;256;1111;-50
2022/08/31 03:16:27;;;;;;;;;;;21.50;42.10;;;;;;464398;255;1657;-50
2022/08/31 03:18:28;;;;;;;;;;;21.50;42.10;;;;;;464340;255;2183;-49
2022/08/31 03:20:29;;;;;;;;;;;21.50;42.10;;;;;;464603;255;1085;-50
2022/08/31 03:22:31;;;;;;;;;;;21.50;42.00;;;;;;464257;256;1253;-49
2022/08/31 03:24:32;;;;;;;;;;;21.50;42.00;;;;;;464431;255;1202;-50
2022/08/31 03:26:33;;;;;;;;;;;21.50;42.00;;;;;;464253;256;1291;-50
2022/08/31 03:28:35;;;;;;;;;;;21.50;42.00;;;;;;464693;255;1242;-50
2022/08/31 03:30:36;;;;;;;;;;;21.50;42.00;;;;;;464656;255;1269;-50
2022/08/31 03:32:38;;;;;;;;;;;21.50;42.00;;;;;;464569;255;1224;-50
2022/08/31 03:34:39;;;;;;;;;;;21.50;42.00;;;;;;464494;255;1267;-50
2022/08/31 03:36:40;;;;;;;;;;;21.50;41.90;;;;;;464438;255;1336;-49
2022/08/31 03:38:42;;;;;;;;;;;21.50;41.90;;;;;;464604;255;2139;-50
2022/08/31 03:40:43;;;;;;;;;;;21.50;41.90;;;;;;464469;255;1369;-50
2022/08/31 03:42:44;;;;;;;;;;;21.50;41.90;;;;;;464251;256;1268;-50
2022/08/31 03:44:45;;;;;;;;;;;21.50;41.90;;;;;;464549;255;1264;-49
2022/08/31 03:46:48;;;;;;;;;;;21.50;41.90;;;;;;464654;255;2294;-49
2022/08/31 03:48:48;;;;;;;;;;;21.50;41.90;;;;;;464264;256;2456;-49
2022/08/31 03:50:49;;;;;;;;;;;21.50;41.90;;;;;;464529;255;1269;-50
2022/08/31 03:52:52;;;;;;;;;;;21.50;41.90;;;;;;464307;255;1194;-50
2022/08/31 03:54:52;;;;;;;;;;;21.50;41.90;;;;;;464339;255;2333;-49
2022/08/31 03:56:54;;;;;;;;;;;21.50;41.90;;;;;;464187;256;1176;-50
2022/08/31 03:58:55;;;;;;;;;;;21.50;41.90;;;;;;464491;255;2187;-50
2022/08/31 04:00:56;;;;;;;;;;;21.50;41.90;;;;;;464554;255;1231;-50
2022/08/31 04:02:58;;;;;;;;;;;21.50;41.90;;;;;;464559;255;1217;-50
2022/08/31 04:04:59;;;;;;;;;;;21.60;41.90;;;;;;464442;255;1274;-49
2022/08/31 04:07:00;;;;;;;;;;;21.60;41.90;;;;;;464085;256;1200;-50
2022/08/31 04:09:02;;;;;;;;;;;21.50;41.90;;;;;;464332;255;1218;-49
2022/08/31 04:11:03;;;;;;;;;;;21.50;41.80;;;;;;464253;256;1106;-49
2022/08/31 04:13:04;;;;;;;;;;;21.60;41.90;;;;;;464441;255;1369;-50
2022/08/31 04:15:06;;;;;;;;;;;21.60;41.90;;;;;;464232;256;1242;-50
2022/08/31 04:17:07;;;;;;;;;;;21.50;41.90;;;;;;464632;255;1268;-50
2022/08/31 04:19:08;;;;;;;;;;;21.50;41.90;;;;;;464228;255;2218;-50
2022/08/31 04:21:10;;;;;;;;;;;21.50;42.00;;;;;;464144;256;1495;-50
2022/08/31 04:23:11;;;;;;;;;;;21.50;42.10;;;;;;464320;255;1266;-50
2022/08/31 04:25:12;;;;;;;;;;;21.50;42.20;;;;;;464191;256;1275;-49
2022/08/31 04:27:14;;;;;;;;;;;21.50;42.30;;;;;;464637;255;1289;-49
2022/08/31 04:29:15;;;;;;;;;;;21.50;42.30;;;;;;464571;255;1237;-49
2022/08/31 04:31:16;;;;;;;;;;;21.50;42.40;;;;;;464442;255;1264;-50
2022/08/31 04:33:18;;;;;;;;;;;21.50;42.50;;;;;;464550;255;1331;-50
2022/08/31 04:35:19;;;;;;;;;;;21.50;42.50;;;;;;464408;255;1295;-50
2022/08/31 04:37:20;;;;;;;;;;;21.50;42.50;;;;;;464354;255;1332;-50
2022/08/31 04:39:22;;;;;;;;;;;21.50;42.60;;;;;;464150;256;2139;-50
2022/08/31 04:41:23;;;;;;;;;;;21.50;42.60;;;;;;464304;255;1234;-50
2022/08/31 04:43:24;;;;;;;;;;;21.50;42.70;;;;;;464415;255;1224;-50
2022/08/31 04:45:25;;;;;;;;;;;21.50;42.70;;;;;;464517;255;1377;-50
2022/08/31 04:47:27;;;;;;;;;;;21.50;42.80;;;;;;464305;255;1489;-50
2022/08/31 04:49:28;;;;;;;;;;;21.50;42.80;;;;;;464167;256;1359;-50
2022/08/31 04:51:30;;;;;;;;;;;21.50;42.90;;;;;;464348;255;1323;-49
2022/08/31 04:53:31;;;;;;;;;;;21.50;42.90;;;;;;464193;256;1285;-50
2022/08/31 04:55:32;;;;;;;;;;;21.50;42.90;;;;;;464125;255;1341;-50
2022/08/31 04:57:34;;;;;;;;;;;21.50;43.00;;;;;;464548;255;2214;-50
2022/08/31 04:59:35;;;;;;;;;;;21.50;43.10;;;;;;464603;255;1336;-50
2022/08/31 05:01:37;;;;;;;;;;;21.40;43.10;;;;;;464616;255;1237;-50
2022/08/31 05:03:39;;;;;;;;;;;21.40;43.20;;;;;;464219;255;1823;-49
2022/08/31 05:05:39;;;;;;;;;;;21.40;43.20;;;;;;464192;256;2423;-50
2022/08/31 05:07:40;;;;;;;;;;;21.40;43.20;;;;;;464183;255;1246;-50
2022/08/31 05:09:42;;;;;;;;;;;21.40;43.10;;;;;;464380;255;1257;-50
2022/08/31 05:11:43;;;;;;;;;;;21.40;43.20;;;;;;464268;255;1331;-49
2022/08/31 05:13:44;;;;;;;;;;;21.50;43.20;;;;;;464546;255;1345;-50
2022/08/31 05:15:46;;;;;;;;;;;21.50;43.30;;;;;;464577;255;1330;-49
2022/08/31 05:17:47;;;;;;;;;;;21.50;43.30;;;;;;464424;255;2171;-50
2022/08/31 05:19:48;;;;;;;;;;;21.40;43.30;;;;;;464112;256;1328;-50
2022/08/31 05:21:50;;;;;;;;;;;21.40;43.30;;;;;;464271;255;1306;-50
2022/08/31 05:23:51;;;;;;;;;;;21.50;43.40;;;;;;464190;255;1215;-50
2022/08/31 05:25:52;;;;;;;;;;;21.40;43.40;;;;;;464331;255;1220;-50
2022/08/31 05:27:54;;;;;;;;;;;21.40;43.40;;;;;;464588;255;1684;-50
2022/08/31 05:29:55;;;;;;;;;;;21.50;43.50;;;;;;464198;256;1238;-50
2022/08/31 05:31:56;;;;;;;;;;;21.40;43.50;;;;;;464127;256;1288;-49
2022/08/31 05:33:57;;;;;;;;;;;21.40;43.50;;;;;;464497;255;1172;-50
2022/08/31 05:35:59;;;;;;;;;;;21.40;43.50;;;;;;464489;255;1087;-50
2022/08/31 05:38:00;;;;;;;;;;;21.40;43.50;;;;;;464525;255;2218;-50
2022/08/31 05:40:01;;;;;;;;;;;21.50;43.60;;;;;;464185;256;1461;-49
2022/08/31 05:42:03;;;;;;;;;;;21.50;43.60;;;;;;464219;256;1236;-50
2022/08/31 05:44:04;;;;;;;;;;;21.40;43.60;;;;;;464340;255;1234;-49
2022/08/31 05:46:06;;;;;;;;;;;21.40;43.60;;;;;;464263;255;1278;-50
2022/08/31 05:48:07;;;;;;;;;;;21.40;43.70;;;;;;464294;255;1388;-50
2022/08/31 05:50:09;;;;;;;;;;;21.40;43.70;;;;;;464132;256;1186;-50
2022/08/31 05:52:10;;;;;;;;;;;21.40;43.70;;;;;;464646;255;1295;-51
2022/08/31 05:54:13;;;;;;;;;;;21.40;43.80;;;;;;464134;255;1354;-49
2022/08/31 05:56:13;;;;;;;;;;;21.50;43.80;;;;;;464235;255;2214;-49
2022/08/31 05:58:14;;;;;;;;;;;21.40;43.70;;;;;;464136;256;2179;-49
2022/08/31 06:00:15;;;;;;;;;;;21.40;43.80;;;;;;464206;256;1214;-50
2022/08/31 06:02:16;;;;;;;;;;;21.40;43.80;;;;;;464410;255;1175;-50
2022/08/31 06:04:18;;;;;;;;;;;21.40;43.80;;;;;;464448;255;1246;-50
2022/08/31 06:06:19;;;;;;;;;;;21.40;43.90;;;;;;464202;256;1278;-50
2022/08/31 06:08:21;;;;;;;;;;;21.40;43.90;;;;;;463706;255;1383;-50
2022/08/31 06:10:22;;;;;;;;;;;21.40;44.00;;;;;;464091;255;1465;-50
2022/08/31 06:12:24;;;;;;;;;;;21.40;44.00;;;;;;463969;256;1228;-50
2022/08/31 06:14:32;;;;;;;;;;;21.40;44.10;;;;;;463838;255;2185;-50
2022/08/31 06:16:34;;;;;;;;;;;21.40;44.10;;;;;;463688;256;1302;-50
2022/08/31 06:18:35;;;;;;;;;;;21.40;44.10;;;;;;463958;256;2299;-49
2022/08/31 06:20:36;;;;;;;;;;;21.40;44.20;;;;;;464154;255;1384;-50
2022/08/31 06:22:37;;;;;;;;;;;21.50;44.30;;;;;;464158;255;1266;-50
2022/08/31 06:24:39;;;;;;;;;;;21.40;44.30;;;;;;464089;256;1252;-50
2022/08/31 06:26:40;;;;;;;;;;;21.40;44.40;;;;;;464262;255;1119;-50
2022/08/31 06:28:42;;;;;;;;;;;21.40;44.40;;;;;;464200;255;1139;-50
2022/08/31 06:30:44;;;;;;;;;;;21.50;44.50;;;;;;464105;255;1198;-50
2022/08/31 06:32:44;;;;;;;;;;;21.40;44.50;;;;;;464226;255;2115;-50
2022/08/31 06:34:45;;;;;;;;;;;21.50;44.60;;;;;;464247;255;1209;-50
2022/08/31 06:36:47;;;;;;;;;;;21.40;44.60;;;;;;464145;255;1191;-50
2022/08/31 06:38:48;;;;;;;;;;;21.50;44.70;;;;;;464094;255;2174;-50
2022/08/31 06:40:49;;;;;;;;;;;21.50;44.70;;;;;;463753;256;1186;-50
2022/08/31 06:42:51;;;;;;;;;;;21.50;44.80;;;;;;464000;256;1297;-50
2022/08/31 06:44:52;;;;;;;;;;;21.40;44.80;;;;;;463885;255;1246;-50
2022/08/31 06:46:54;;;;;;;;;;;21.50;44.80;;;;;;464189;255;1329;-50
2022/08/31 06:48:55;;;;;;;;;;;21.40;44.90;;;;;;463903;256;1292;-49
2022/08/31 06:50:56;;;;;;;;;;;21.50;45.10;;;;;;464067;255;1217;-50
2022/08/31 06:52:57;;;;;;;;;;;21.50;45.10;;;;;;464015;255;1220;-50
2022/08/31 06:54:59;;;;;;;;;;;21.50;45.20;;;;;;464170;255;1235;-51
2022/08/31 06:57:01;;;;;;;;;;;21.50;45.00;;;;;;463979;255;1173;-50
2022/08/31 06:59:02;;;;;;;;;;;21.50;45.00;;;;;;464018;255;2360;-50
2022/08/31 07:01:03;;;;;;;;;;;21.50;44.90;;;;;;464053;255;1237;-50
2022/08/31 07:03:21;;;;;;;;;;;21.50;44.80;;;;;;463889;256;1551;-50
2022/08/31 07:05:06;;;;;;;;;;;21.50;44.80;;;;;;463904;255;1555;-50
2022/08/31 07:07:10;;;;;;;;;;;21.50;44.80;;;;;;464087;255;1182;-50
2022/08/31 07:09:09;;;;;;;;;;;21.50;44.80;;;;;;463909;255;2258;-50
2022/08/31 07:11:11;;;;;;;;;;;21.50;44.90;;;;;;464129;255;1223;-49
2022/08/31 07:13:12;;;;;;;;;;;21.50;45.00;;;;;;463959;255;1265;-50
2022/08/31 07:15:13;;;;;;;;;;;21.50;44.90;;;;;;463975;256;1546;-50
2022/08/31 07:17:15;;;;;;;;;;;21.50;44.90;;;;;;463812;255;1230;-50
2022/08/31 07:19:16;;;;;;;;;;;21.50;44.80;;;;;;463614;255;2206;-50
2022/08/31 07:21:17;;;;;;;;;;;21.50;44.80;;;;;;463918;255;1249;-49
2022/08/31 07:23:19;;;;;;;;;;;21.50;44.80;;;;;;463971;256;1309;-50
2022/08/31 07:25:20;;;;;;;;;;;21.50;44.70;;;;;;464085;255;1723;-50
2022/08/31 07:27:21;;;;;;;;;;;21.50;44.70;;;;;;463987;255;1219;-50
2022/08/31 07:29:23;;;;;;;;;;;21.50;44.70;;;;;;463818;256;1175;-50
2022/08/31 07:31:24;;;;;;;;;;;21.50;44.70;;;;;;463832;255;1259;-50
2022/08/31 07:33:25;;;;;;;;;;;21.50;44.70;;;;;;463988;256;2132;-50
2022/08/31 07:35:28;;;;;;;;;;;21.50;44.60;;;;;;464154;255;1306;-50
2022/08/31 07:42:10;;;;;;;;;;;21.50;44.60;;;;;;464120;257;1755;-49
2022/08/31 07:44:11;;;;;;;;;;;21.50;44.60;;;;;;464038;255;1253;-50
2022/08/31 07:46:12;;;;;;;;;;;21.50;44.60;;;;;;464200;255;1323;-50
2022/08/31 07:48:14;;;;;;;;;;;21.60;44.70;;;;;;464028;255;1298;-49
2022/08/31 07:50:15;;;;;;;;;;;21.50;44.60;;;;;;463907;256;1354;-49
2022/08/31 07:52:19;;;;;;;;;;;21.50;44.60;;;;;;463840;256;1193;-50
2022/08/31 07:54:19;;;;;;;;;;;21.50;44.60;;;;;;463927;256;2030;-50
2022/08/31 07:56:19;;;;;;;;;;;21.50;44.60;;;;;;464044;255;2197;-50
2022/08/31 07:58:21;;;;;;;;;;;21.50;44.80;;;;;;464180;255;1207;-50
2022/08/31 08:00:22;;;;;;;;;;;21.50;44.60;;;;;;464151;255;2170;-50
2022/08/31 08:02:23;;;;;;;;;;;21.50;44.60;;;;;;463979;255;1222;-50
2022/08/31 08:04:25;;;;;;;;;;;21.50;44.50;;;;;;463971;256;1319;-49
2022/08/31 08:06:27;;;;;;;;;;;21.50;44.50;;;;;;463953;255;1241;-50
2022/08/31 08:08:28;;;;;;;;;;;21.50;44.50;;;;;;464038;255;2086;-50
2022/08/31 08:10:30;;;;;;;;;;;21.60;44.50;;;;;;463994;255;1228;-50
2022/08/31 08:12:35;;;;;;;;;;;21.50;44.50;;;;;;463919;255;2145;-50
2022/08/31 08:14:32;;;;;;;;;;;21.50;44.50;;;;;;463844;255;2832;-49
2022/08/31 08:16:34;;;;;;;;;;;21.50;44.50;;;;;;464095;255;1262;-50
2022/08/31 08:18:35;;;;;;;;;;;21.50;44.50;;;;;;464174;255;1200;-50
2022/08/31 08:20:36;;;;;;;;;;;21.50;44.60;;;;;;464324;255;2202;-50
2022/08/31 08:22:38;;;;;;;;;;;21.50;44.60;;;;;;463927;256;1225;-49
2022/08/31 08:24:41;;;;;;;;;;;21.50;44.50;;;;;;464163;255;1238;-49
2022/08/31 08:26:41;;;;;;;;;;;21.50;44.50;;;;;;464058;255;2283;-50
2022/08/31 08:28:42;;;;;;;;;;;21.60;44.60;;;;;;464076;255;1349;-50
2022/08/31 08:30:43;;;;;;;;;;;21.50;44.50;;;;;;463945;256;1287;-50
2022/08/31 08:32:46;;;;;;;;;;;21.50;44.50;;;;;;463919;256;1217;-50
2022/08/31 08:34:46;;;;;;;;;;;21.60;44.60;;;;;;464050;255;2446;-50
2022/08/31 08:36:47;;;;;;;;;;;21.60;44.50;;;;;;464034;255;1211;-49
2022/08/31 08:38:49;;;;;;;;;;;21.60;44.60;;;;;;463912;255;1237;-49
2022/08/31 08:40:50;;;;;;;;;;;21.60;44.50;;;;;;464100;255;2199;-50
2022/08/31 08:42:51;;;;;;;;;;;21.60;44.60;;;;;;464052;255;1647;-50
2022/08/31 08:44:52;;;;;;;;;;;21.60;44.50;;;;;;463984;256;1237;-50
2022/08/31 08:46:54;;;;;;;;;;;21.60;44.60;;;;;;463936;256;1208;-50
2022/08/31 08:48:56;;;;;;;;;;;21.60;44.50;;;;;;463949;256;1295;-49
2022/08/31 08:50:56;;;;;;;;;;;21.60;44.60;;;;;;464008;255;1568;-49
2022/08/31 08:52:58;;;;;;;;;;;21.60;44.60;;;;;;463805;256;1225;-49
2022/08/31 08:54:59;;;;;;;;;;;21.60;44.50;;;;;;463857;255;1238;-49
2022/08/31 08:57:00;;;;;;;;;;;21.60;44.70;;;;;;464048;255;1256;-50
2022/08/31 08:59:02;;;;;;;;;;;21.60;44.60;;;;;;463935;256;2202;-49
2022/08/31 09:01:03;;;;;;;;;;;21.60;44.60;;;;;;463924;256;1198;-49
2022/08/31 09:03:06;;;;;;;;;;;21.50;44.70;;;;;;463956;255;1244;-50
2022/08/31 09:05:07;;;;;;;;;;;21.60;44.80;;;;;;463937;256;2409;-50
2022/08/31 09:07:07;;;;;;;;;;;21.60;44.90;;;;;;463903;255;1710;-49
2022/08/31 09:09:09;;;;;;;;;;;21.50;44.90;;;;;;463850;255;1288;-50
2022/08/31 09:11:16;;;;;;;;;;;21.60;44.90;;;;;;463860;255;2417;-50
2022/08/31 09:13:11;;;;;;;;;;;21.50;44.70;;;;;;463883;256;2188;-50
2022/08/31 09:15:14;;;;;;;;;;;21.50;44.80;;;;;;463918;255;1211;-50
2022/08/31 09:17:15;;;;;;;;;;;21.50;44.80;;;;;;463844;257;1570;-50
2022/08/31 09:19:16;;;;;;;;;;;21.50;44.80;;;;;;463989;255;2210;-49
2022/08/31 09:21:20;;;;;;;;;;;21.50;44.80;;;;;;463926;256;1247;-50
2022/08/31 09:23:21;;;;;;;;;;;21.50;44.70;;;;;;464000;255;1479;-50
2022/08/31 09:25:25;;;;;;;;;;;21.50;44.70;;;;;;463866;256;1687;-50
2022/08/31 09:27:26;;;;;;;;;;;21.50;44.70;;;;;;463959;255;2530;-50
2022/08/31 09:29:25;;;;;;;;;;;21.50;44.80;;;;;;464038;255;2324;-50
2022/08/31 09:31:31;;;;;;;;;;;21.60;44.80;;;;;;463949;255;1207;-50
2022/08/31 09:33:28;;;;;;;;;;;21.60;44.80;;;;;;463842;256;2549;-49
2022/08/31 09:35:29;;;;;;;;;;;21.50;44.60;;;;;;463933;256;1214;-50
2022/08/31 09:37:32;;;;;;;;;;;21.60;44.70;;;;;;464086;255;1309;-50
2022/08/31 09:39:35;;;;;;;;;;;21.60;44.70;;;;;;463988;255;2195;-49
2022/08/31 09:41:36;;;;;;;;;;;21.50;44.70;;;;;;463798;256;2300;-50
2022/08/31 09:43:37;;;;;;;;;;;21.50;44.70;;;;;;464168;255;1377;-50
2022/08/31 09:45:38;;;;;;;;;;;21.50;44.70;;;;;;464108;255;1304;-50
2022/08/31 09:47:47;;;;;;;;;;;21.60;44.70;;;;;;464041;255;1354;-49
2022/08/31 09:49:44;;;;;;;;;;;21.50;44.70;;;;;;463976;255;2519;-50
2022/08/31 09:51:47;;;;;;;;;;;21.50;44.70;;;;;;464064;255;1364;-49
2022/08/31 09:56:12;;;;;;;;;;;21.60;44.80;;;;;;460568;256;1554;-50
2022/08/31 09:58:15;;;;;;;;;;;21.60;44.70;;;;;;463760;256;1308;-49
2022/08/31 10:00:17;;;;;;;;;;;21.60;44.70;;;;;;463812;256;2205;-49
2022/08/31 10:02:21;;;;;;;;;;;21.60;44.70;;;;;;463682;256;1358;-50
2022/08/31 10:04:18;;;;;;;;;;;21.60;44.70;;;;;;463994;255;1986;-50
2022/08/31 10:06:19;;;;;;;;;;;21.60;44.60;;;;;;463739;255;1251;-50
2022/08/31 10:08:20;;;;;;;;;;;21.60;44.60;;;;;;463703;256;1202;-50
2022/08/31 10:10:22;;;;;;;;;;;21.60;44.60;;;;;;463780;256;1238;-50
2022/08/31 10:12:23;;;;;;;;;;;21.60;44.70;;;;;;463802;255;1330;-50
2022/08/31 10:14:25;;;;;;;;;;;21.60;44.50;;;;;;463903;255;1372;-50
2022/08/31 10:16:25;;;;;;;;;;;21.60;44.60;;;;;;463676;256;2133;-50
2022/08/31 10:18:27;;;;;;;;;;;21.60;44.60;;;;;;463714;255;1231;-50
2022/08/31 10:20:29;;;;;;;;;;;21.60;44.60;;;;;;463866;255;2171;-50
2022/08/31 10:22:30;;;;;;;;;;;21.60;44.60;;;;;;463798;255;2040;-50
2022/08/31 10:39:43;;;;;;;;;;;21.50;44.60;;;;;;460681;255;2896;-52
2022/08/31 10:41:48;;;;;;;;;;;21.60;44.70;;;;;;468572;253;1281;-51
2022/08/31 10:43:47;;;;;;;;;;;21.60;44.60;;;;;;468327;254;2213;-51
2022/08/31 10:45:48;;;;;;;;;;;21.60;44.70;;;;;;468681;252;2022;-49
2022/08/31 10:47:49;;;;;;;;;;;21.60;44.70;;;;;;468885;252;1322;-49
2022/08/31 10:49:51;;;;;;;;;;;21.60;44.70;;;;;;468701;252;1227;-49
2022/08/31 10:51:52;;;;;;;;;;;21.60;44.70;;;;;;468640;252;1502;-49
2022/08/31 10:53:53;;;;;;;;;;;21.50;44.80;;;;;;468625;252;1207;-48
2022/08/31 10:55:54;;;;;;;;;;;21.60;45.00;;;;;;468705;252;1330;-49
2022/08/31 10:57:56;;;;;;;;;;;21.60;45.00;;;;;;468689;252;1238;-49
2022/08/31 10:59:57;;;;;;;;;;;21.50;45.00;;;;;;468570;252;2198;-49
2022/08/31 11:01:58;;;;;;;;;;;21.60;44.90;;;;;;468606;252;1181;-48
2022/08/31 11:04:00;;;;;;;;;;;21.60;45.00;;;;;;468610;252;1275;-49
2022/08/31 11:06:01;;;;;;;;;;;21.60;45.00;;;;;;468663;252;1335;-48
2022/08/31 11:08:02;;;;;;;;;;;21.60;45.00;;;;;;468875;252;1375;-49
2022/08/31 11:10:04;;;;;;;;;;;21.50;45.00;;;;;;468670;252;1513;-49
2022/08/31 11:12:06;;;;;;;;;;;21.60;44.90;;;;;;468520;252;2216;-49
2022/08/31 11:14:10;;;;;;;;;;;21.60;44.90;;;;;;468726;252;1195;-49
2022/08/31 11:16:09;;;;;;;;;;;21.50;44.80;;;;;;468427;252;2316;-49
2022/08/31 11:18:10;;;;;;;;;;;21.60;44.90;;;;;;456704;252;496193;-49
2022/08/31 11:20:11;;;;;;;;;;;21.50;44.80;;;;;;448406;265;2219;-49
2022/08/31 11:22:13;;;;;;;;;;;21.60;44.90;;;;;;453856;261;1534;-49
2022/08/31 11:24:14;;;;;;;;;;;21.60;44.90;;;;;;453945;262;1239;-48
2022/08/31 11:26:15;;;;;;;;;;;21.60;44.80;;;;;;453943;262;1261;-48
2022/08/31 11:28:17;;;;;;;;;;;21.60;44.80;;;;;;453951;262;1252;-48
2022/08/31 11:30:18;;;;;;;;;;;21.60;44.90;;;;;;453801;263;2990;-49
2022/08/31 11:32:20;;;;;;;;;;;21.60;44.80;;;;;;453921;262;1294;-49
2022/08/31 11:34:23;;;;;;;;;;;21.60;44.80;;;;;;453610;259;38107;-49
2022/08/31 11:36:22;;;;;;;;;;;21.60;44.80;;;;;;452113;261;2246;-49
2022/08/31 11:38:25;;;;;;;;;;;21.60;44.80;;;;;;452501;261;1229;-48
2022/08/31 11:40:25;;;;;;;;;;;21.60;44.80;;;;;;452048;261;2290;-49
2022/08/31 11:42:26;;;;;;;;;;;21.60;45.00;;;;;;452110;261;1457;-50
2022/08/31 11:44:28;;;;;;;;;;;21.60;44.80;;;;;;452226;261;1255;-49
2022/08/31 11:46:29;;;;;;;;;;;21.50;44.80;;;;;;452182;261;1416;-49
2022/08/31 11:48:32;;;;;;;;;;;21.60;44.80;;;;;;452228;261;1237;-49
2022/08/31 11:50:32;;;;;;;;;;;21.60;44.90;;;;;;452103;261;2021;-49
2022/08/31 11:52:35;;;;;;;;;;;21.50;44.80;;;;;;452062;261;1770;-49
2022/08/31 11:54:36;;;;;;;;;;;21.50;44.80;;;;;;452048;261;1539;-49
2022/08/31 11:56:37;;;;;;;;;;;21.60;44.80;;;;;;452089;261;2207;-48
2022/08/31 11:58:38;;;;;;;;;;;21.50;44.80;;;;;;452246;261;1187;-48
2022/08/31 12:00:39;;;;;;;;;;;21.60;44.90;;;;;;452339;261;2189;-49
2022/08/31 12:02:42;;;;;;;;;;;21.60;44.80;;;;;;452171;261;1334;-49
2022/08/31 12:04:45;;;;;;;;;;;21.50;44.70;;;;;;452131;261;1956;-49
2022/08/31 12:06:46;;;;;;;;;;;21.60;44.80;;;;;;452213;261;1622;-49
2022/08/31 12:08:53;;;;;;;;;;;21.50;44.80;;;;;;452276;261;2178;-49
2022/08/31 12:10:52;;;;;;;;;;;21.50;44.80;;;;;;452089;261;1474;-49
2022/08/31 12:12:54;;;;;;;;;;;21.50;44.80;;;;;;452300;261;1556;-49
2022/08/31 12:14:56;;;;;;;;;;;21.60;44.80;;;;;;452069;259;1385;-49
2022/08/31 12:16:57;;;;;;;;;;;21.50;44.80;;;;;;452190;261;1263;-48
2022/08/31 12:18:58;;;;;;;;;;;21.50;44.70;;;;;;452067;261;1249;-48
2022/08/31 12:23:34;;;;;;;;;;;21.50;44.80;;;;;;452093;263;1341;-49
2022/08/31 12:25:36;;;;;;;;;;;21.50;44.90;;;;;;452389;261;1278;-48